Hauptseite
METAR-TAF:

METAR-TAF

Flughäfen :

Flughafen Alice Springs

Alice Springs, Australien

Breite: 23-48S, Länge: 133-53E, Höhe: 545 m

Beobachtung

Neuester Wetterbericht von vor 43 Minuten, um 07:00 UTC
Wind 2 kt aus Süd/Südwest
Temperatur 28°C
Luftfeuchtigkeit 6%
Luftdruck 1014 hPa
Sichtweite 10 km oder mehr

METAR: YBAS 170700Z AUTO 21002KT 9999 // NCD 28/M13 Q1014 RF00.0/000.0 PRESENT WEATHER SENSOR US

Zeit: 17:13 (07:43 UTC)

Prognose

Neuester Wetterbericht von vor 2 Stunden und 36 Minuten, um 05:07 UTC
Gültige Prognose vom 17 um 06 UTC bis 18 um 06 UTC
Wind 6 kt aus Nord
Sichtweite 10 km oder mehr
keine Wolken unter 1500 m und keine Kumulonimbus oder Gewitterwolken
Ab 18 um 0000 UTC
Wind 12 kt aus Süd/Südost
Sichtweite 10 km oder mehr
keine Wolken unter 1500 m und keine Kumulonimbus oder Gewitterwolken

TAF: YBAS 170507Z 1706/1806 35006KT CAVOK FM180000 15012KT CAVOK

Wetterbeobachtungen und Prognosen von mehr als 4000 Flughäfen (METAR und TAF Bericht).

Die verfügbaren Stationen werden durch gelbe und rote Markierungen auf der Karte dargestellt.

Führen Sie die Maus auf sie, um den Namen der Station zu sehen.

Darauf klicken, um die Beobachtung von Wetterbeobachtungen und Prognosen zu sehen.

Um die Karte zu ändern : klicken Sie auf den grünen Tasten mit einem schwarzen Kreuz Zum Vergrößern, auf den grünen Button mit einem Gedankenstrich zu verkleinern, oder auf die grünen Pfeile für benachbarte Karten.


METAR-TAF: